Shell Beach, California
Current Conditions -  °F | °C
As of 6:56 PM on Sunday 23 Nov 2014 (Local Time) from KSBP Reporting Station
Clear Clear  
Wind Chill: 57°   Ceiling: Unl
Heat Index: 57°   Visibility: 10mi
Dew Point: 35°   Wind: 3mph
Humidity: 44%   Direction: 130°SE
Pressure: 30.22"   Gusts: NA
Location:  35.1597°N, 120.657°W
Report Text: KSBP 240256Z 13003KT 10SM CLR 14/02 A3022 RMK AO2 SLP231 T01390017 53006
Loading
Personal Weather Stations






























Interactive Weather Map New forecast layout! Learn more

10-Day Weather Forecast

Advertisements
Track Severe Weather on mobile